sensor_id;sensor_type;location;lat;lon;timestamp;temperature;humidity
1578;DHT22;57623;53.608;10.004;2024-01-10T00:02:21;-4.50;99.90
1578;DHT22;57623;53.608;10.004;2024-01-10T00:04:49;-4.50;99.90
1578;DHT22;57623;53.608;10.004;2024-01-10T00:07:17;-4.40;99.90
1578;DHT22;57623;53.608;10.004;2024-01-10T00:09:45;-4.40;99.90
1578;DHT22;57623;53.608;10.004;2024-01-10T00:12:15;-4.40;99.90
1578;DHT22;57623;53.608;10.004;2024-01-10T00:14:43;-4.40;99.90
1578;DHT22;57623;53.608;10.004;2024-01-10T00:17:11;-4.40;99.90
1578;DHT22;57623;53.608;10.004;2024-01-10T00:19:39;-4.30;99.90
1578;DHT22;57623;53.608;10.004;2024-01-10T00:22:07;-4.30;99.90
1578;DHT22;57623;53.608;10.004;2024-01-10T00:24:35;-4.30;99.90
1578;DHT22;57623;53.608;10.004;2024-01-10T00:27:03;-4.20;99.90
1578;DHT22;57623;53.608;10.004;2024-01-10T00:29:33;-4.20;99.90
1578;DHT22;57623;53.608;10.004;2024-01-10T00:32:01;-4.20;99.90
1578;DHT22;57623;53.608;10.004;2024-01-10T00:34:30;-4.20;99.90
1578;DHT22;57623;53.608;10.004;2024-01-10T00:36:58;-4.20;99.90
1578;DHT22;57623;53.608;10.004;2024-01-10T00:39:26;-4.20;99.90
1578;DHT22;57623;53.608;10.004;2024-01-10T00:41:54;-4.20;99.90
1578;DHT22;57623;53.608;10.004;2024-01-10T00:44:22;-4.10;99.90
1578;DHT22;57623;53.608;10.004;2024-01-10T00:46:51;-4.10;99.90
1578;DHT22;57623;53.608;10.004;2024-01-10T00:49:20;-4.10;99.90
1578;DHT22;57623;53.608;10.004;2024-01-10T00:51:47;-4.10;99.90
1578;DHT22;57623;53.608;10.004;2024-01-10T00:54:16;-4.00;99.90
1578;DHT22;57623;53.608;10.004;2024-01-10T00:56:44;-4.00;99.90
1578;DHT22;57623;53.608;10.004;2024-01-10T00:59:12;-4.10;99.90
1578;DHT22;57623;53.608;10.004;2024-01-10T01:01:40;-4.10;99.90
1578;DHT22;57623;53.608;10.004;2024-01-10T01:04:09;-4.00;99.90
1578;DHT22;57623;53.608;10.004;2024-01-10T01:06:37;-4.00;99.90
1578;DHT22;57623;53.608;10.004;2024-01-10T01:09:05;-4.00;99.90
1578;DHT22;57623;53.608;10.004;2024-01-10T01:11:33;-4.00;99.90
1578;DHT22;57623;53.608;10.004;2024-01-10T01:14:01;-4.00;99.90
1578;DHT22;57623;53.608;10.004;2024-01-10T01:16:30;-4.00;99.90
1578;DHT22;57623;53.608;10.004;2024-01-10T01:18:58;-3.90;99.90
1578;DHT22;57623;53.608;10.004;2024-01-10T01:21:27;-3.90;99.90
1578;DHT22;57623;53.608;10.004;2024-01-10T01:23:55;-4.00;99.90
1578;DHT22;57623;53.608;10.004;2024-01-10T01:26:23;-3.90;99.90
1578;DHT22;57623;53.608;10.004;2024-01-10T01:28:51;-3.90;99.90
1578;DHT22;57623;53.608;10.004;2024-01-10T01:31:19;-3.90;99.90
1578;DHT22;57623;53.608;10.004;2024-01-10T01:33:47;-3.80;99.90
1578;DHT22;57623;53.608;10.004;2024-01-10T01:36:15;-3.90;99.90
1578;DHT22;57623;53.608;10.004;2024-01-10T01:38:45;-3.80;99.90
1578;DHT22;57623;53.608;10.004;2024-01-10T01:41:13;-3.80;99.90
1578;DHT22;57623;53.608;10.004;2024-01-10T01:43:43;-3.80;99.90
1578;DHT22;57623;53.608;10.004;2024-01-10T01:46:11;-3.80;99.90
1578;DHT22;57623;53.608;10.004;2024-01-10T01:48:39;-3.70;99.90
1578;DHT22;57623;53.608;10.004;2024-01-10T01:51:09;-3.70;99.90
1578;DHT22;57623;53.608;10.004;2024-01-10T01:53:40;-3.70;99.90
1578;DHT22;57623;53.608;10.004;2024-01-10T01:56:09;-3.70;99.90
1578;DHT22;57623;53.608;10.004;2024-01-10T01:58:39;-3.70;99.90
1578;DHT22;57623;53.608;10.004;2024-01-10T02:01:07;-3.70;99.90
1578;DHT22;57623;53.608;10.004;2024-01-10T02:03:35;-3.70;99.90
1578;DHT22;57623;53.608;10.004;2024-01-10T02:06:04;-3.60;99.90
1578;DHT22;57623;53.608;10.004;2024-01-10T02:08:33;-3.70;99.90
1578;DHT22;57623;53.608;10.004;2024-01-10T02:11:02;-3.70;99.90
1578;DHT22;57623;53.608;10.004;2024-01-10T02:13:32;-3.70;99.90
1578;DHT22;57623;53.608;10.004;2024-01-10T02:16:00;-3.60;99.90
1578;DHT22;57623;53.608;10.004;2024-01-10T02:18:30;-3.60;99.90
1578;DHT22;57623;53.608;10.004;2024-01-10T02:20:58;-3.60;99.90
1578;DHT22;57623;53.608;10.004;2024-01-10T02:23:26;-3.60;99.90
1578;DHT22;57623;53.608;10.004;2024-01-10T02:25:55;-3.60;99.90
1578;DHT22;57623;53.608;10.004;2024-01-10T02:28:23;-3.60;99.90
1578;DHT22;57623;53.608;10.004;2024-01-10T02:30:53;-3.60;99.90
1578;DHT22;57623;53.608;10.004;2024-01-10T02:33:22;-3.60;99.90
1578;DHT22;57623;53.608;10.004;2024-01-10T02:35:50;-3.60;99.90
1578;DHT22;57623;53.608;10.004;2024-01-10T02:38:18;-3.60;99.90
1578;DHT22;57623;53.608;10.004;2024-01-10T02:40:48;-3.60;99.90
1578;DHT22;57623;53.608;10.004;2024-01-10T02:43:17;-3.60;99.90
1578;DHT22;57623;53.608;10.004;2024-01-10T02:45:45;-3.60;99.90
1578;DHT22;57623;53.608;10.004;2024-01-10T02:48:13;-3.60;99.90
1578;DHT22;57623;53.608;10.004;2024-01-10T02:50:41;-3.60;99.90
1578;DHT22;57623;53.608;10.004;2024-01-10T02:53:09;-3.60;99.90
1578;DHT22;57623;53.608;10.004;2024-01-10T02:55:37;-3.50;99.90
1578;DHT22;57623;53.608;10.004;2024-01-10T02:58:05;-3.50;99.90
1578;DHT22;57623;53.608;10.004;2024-01-10T03:00:35;-3.50;99.90
1578;DHT22;57623;53.608;10.004;2024-01-10T03:03:04;-3.50;99.90
1578;DHT22;57623;53.608;10.004;2024-01-10T03:05:32;-3.40;99.90
1578;DHT22;57623;53.608;10.004;2024-01-10T03:08:00;-3.50;99.90
1578;DHT22;57623;53.608;10.004;2024-01-10T03:10:29;-3.40;99.90
1578;DHT22;57623;53.608;10.004;2024-01-10T03:12:57;-3.40;99.90
1578;DHT22;57623;53.608;10.004;2024-01-10T03:15:25;-3.40;99.90
1578;DHT22;57623;53.608;10.004;2024-01-10T03:17:54;-3.40;99.90
1578;DHT22;57623;53.608;10.004;2024-01-10T03:20:23;-3.40;99.90
1578;DHT22;57623;53.608;10.004;2024-01-10T03:22:51;-3.30;99.90
1578;DHT22;57623;53.608;10.004;2024-01-10T03:25:19;-3.30;99.90
1578;DHT22;57623;53.608;10.004;2024-01-10T03:27:47;-3.30;99.90
1578;DHT22;57623;53.608;10.004;2024-01-10T03:30:15;-3.30;99.90
1578;DHT22;57623;53.608;10.004;2024-01-10T03:32:45;-3.20;99.90
1578;DHT22;57623;53.608;10.004;2024-01-10T03:35:15;-3.20;99.90
1578;DHT22;57623;53.608;10.004;2024-01-10T03:37:43;-3.20;99.90
1578;DHT22;57623;53.608;10.004;2024-01-10T03:40:11;-3.20;99.90
1578;DHT22;57623;53.608;10.004;2024-01-10T03:42:39;-3.10;99.90
1578;DHT22;57623;53.608;10.004;2024-01-10T03:45:07;-3.10;99.90
1578;DHT22;57623;53.608;10.004;2024-01-10T03:47:35;-3.10;99.90
1578;DHT22;57623;53.608;10.004;2024-01-10T03:50:04;-3.10;99.90
1578;DHT22;57623;53.608;10.004;2024-01-10T03:52:35;-3.10;99.90
1578;DHT22;57623;53.608;10.004;2024-01-10T03:55:03;-3.10;99.90
1578;DHT22;57623;53.608;10.004;2024-01-10T03:57:31;-3.00;99.90
1578;DHT22;57623;53.608;10.004;2024-01-10T03:59:59;-3.00;99.90
1578;DHT22;57623;53.608;10.004;2024-01-10T04:02:27;-3.00;99.90
1578;DHT22;57623;53.608;10.004;2024-01-10T04:04:55;-3.00;99.90
1578;DHT22;57623;53.608;10.004;2024-01-10T04:07:23;-3.00;99.90
1578;DHT22;57623;53.608;10.004;2024-01-10T04:09:53;-3.10;99.90
1578;DHT22;57623;53.608;10.004;2024-01-10T04:12:21;-3.10;99.90
1578;DHT22;57623;53.608;10.004;2024-01-10T04:14:49;-3.10;99.90
1578;DHT22;57623;53.608;10.004;2024-01-10T04:17:17;-3.00;99.90
1578;DHT22;57623;53.608;10.004;2024-01-10T04:19:45;-3.00;99.90
1578;DHT22;57623;53.608;10.004;2024-01-10T04:22:13;-3.00;99.90
1578;DHT22;57623;53.608;10.004;2024-01-10T04:24:41;-3.00;99.90
1578;DHT22;57623;53.608;10.004;2024-01-10T04:27:10;-2.90;99.90
1578;DHT22;57623;53.608;10.004;2024-01-10T04:29:38;-2.90;99.90
1578;DHT22;57623;53.608;10.004;2024-01-10T04:32:06;-2.90;99.90
1578;DHT22;57623;53.608;10.004;2024-01-10T04:34:34;-2.90;99.90
1578;DHT22;57623;53.608;10.004;2024-01-10T04:37:03;-2.90;99.90
1578;DHT22;57623;53.608;10.004;2024-01-10T04:39:34;-2.90;99.90
1578;DHT22;57623;53.608;10.004;2024-01-10T04:42:02;-2.80;99.90
1578;DHT22;57623;53.608;10.004;2024-01-10T04:44:31;-2.80;99.90
1578;DHT22;57623;53.608;10.004;2024-01-10T04:46:59;-2.80;99.90
1578;DHT22;57623;53.608;10.004;2024-01-10T04:49:27;-2.80;99.90
1578;DHT22;57623;53.608;10.004;2024-01-10T04:51:55;-2.70;99.90
1578;DHT22;57623;53.608;10.004;2024-01-10T04:54:24;-2.70;99.90
1578;DHT22;57623;53.608;10.004;2024-01-10T04:56:52;-2.70;99.90
1578;DHT22;57623;53.608;10.004;2024-01-10T04:59:20;-2.60;99.90
1578;DHT22;57623;53.608;10.004;2024-01-10T05:01:50;-2.60;99.90
1578;DHT22;57623;53.608;10.004;2024-01-10T05:04:18;-2.60;99.90
1578;DHT22;57623;53.608;10.004;2024-01-10T05:06:46;-2.60;99.90
1578;DHT22;57623;53.608;10.004;2024-01-10T05:09:15;-2.60;99.90
1578;DHT22;57623;53.608;10.004;2024-01-10T05:11:43;-2.60;99.90
1578;DHT22;57623;53.608;10.004;2024-01-10T05:14:13;-2.60;99.90
1578;DHT22;57623;53.608;10.004;2024-01-10T05:16:42;-2.60;99.90
1578;DHT22;57623;53.608;10.004;2024-01-10T05:19:11;-2.50;99.90
1578;DHT22;57623;53.608;10.004;2024-01-10T05:21:39;-2.50;99.90
1578;DHT22;57623;53.608;10.004;2024-01-10T05:24:07;-2.50;99.90
1578;DHT22;57623;53.608;10.004;2024-01-10T05:26:36;-2.50;99.90
1578;DHT22;57623;53.608;10.004;2024-01-10T05:29:04;-2.50;99.90
1578;DHT22;57623;53.608;10.004;2024-01-10T05:31:32;-2.50;99.90
1578;DHT22;57623;53.608;10.004;2024-01-10T05:34:00;-2.50;99.90
1578;DHT22;57623;53.608;10.004;2024-01-10T05:36:29;-2.50;99.90
1578;DHT22;57623;53.608;10.004;2024-01-10T05:38:57;-2.50;99.90
1578;DHT22;57623;53.608;10.004;2024-01-10T05:41:25;-2.50;99.90
1578;DHT22;57623;53.608;10.004;2024-01-10T05:43:53;-2.50;99.90
1578;DHT22;57623;53.608;10.004;2024-01-10T05:46:22;-2.50;99.90
1578;DHT22;57623;53.608;10.004;2024-01-10T05:48:49;-2.50;99.90
1578;DHT22;57623;53.608;10.004;2024-01-10T05:51:18;-2.50;99.90
1578;DHT22;57623;53.608;10.004;2024-01-10T05:53:47;-2.50;99.90
1578;DHT22;57623;53.608;10.004;2024-01-10T05:56:15;-2.60;99.90
1578;DHT22;57623;53.608;10.004;2024-01-10T05:58:43;-2.60;99.90
1578;DHT22;57623;53.608;10.004;2024-01-10T06:01:11;-2.60;99.90
1578;DHT22;57623;53.608;10.004;2024-01-10T06:03:40;-2.60;99.90
1578;DHT22;57623;53.608;10.004;2024-01-10T06:06:09;-2.60;99.90
1578;DHT22;57623;53.608;10.004;2024-01-10T06:08:37;-2.60;99.90
1578;DHT22;57623;53.608;10.004;2024-01-10T06:11:06;-2.60;99.90
1578;DHT22;57623;53.608;10.004;2024-01-10T06:13:36;-2.60;99.90
1578;DHT22;57623;53.608;10.004;2024-01-10T06:16:19;-2.60;99.90
1578;DHT22;57623;53.608;10.004;2024-01-10T06:18:47;-2.60;99.90
1578;DHT22;57623;53.608;10.004;2024-01-10T06:21:15;-2.50;99.90
1578;DHT22;57623;53.608;10.004;2024-01-10T06:23:43;-2.50;99.90
1578;DHT22;57623;53.608;10.004;2024-01-10T06:26:13;-2.50;99.90
1578;DHT22;57623;53.608;10.004;2024-01-10T06:28:42;-2.50;99.90
1578;DHT22;57623;53.608;10.004;2024-01-10T06:31:10;-2.50;99.90
1578;DHT22;57623;53.608;10.004;2024-01-10T06:33:38;-2.50;99.90
1578;DHT22;57623;53.608;10.004;2024-01-10T06:36:07;-2.50;99.90
1578;DHT22;57623;53.608;10.004;2024-01-10T06:38:35;-2.50;99.90
1578;DHT22;57623;53.608;10.004;2024-01-10T06:41:07;-2.50;99.90
1578;DHT22;57623;53.608;10.004;2024-01-10T06:43:37;-2.50;99.90
1578;DHT22;57623;53.608;10.004;2024-01-10T06:46:06;-2.50;99.90
1578;DHT22;57623;53.608;10.004;2024-01-10T06:48:34;-2.50;99.90
1578;DHT22;57623;53.608;10.004;2024-01-10T06:51:09;-2.50;99.90
1578;DHT22;57623;53.608;10.004;2024-01-10T06:53:38;-2.40;99.90
1578;DHT22;57623;53.608;10.004;2024-01-10T06:56:06;-2.40;99.90
1578;DHT22;57623;53.608;10.004;2024-01-10T06:58:38;-2.40;99.90
1578;DHT22;57623;53.608;10.004;2024-01-10T07:01:11;-2.40;99.90
1578;DHT22;57623;53.608;10.004;2024-01-10T07:03:40;-2.40;99.90
1578;DHT22;57623;53.608;10.004;2024-01-10T07:06:09;-2.40;99.90
1578;DHT22;57623;53.608;10.004;2024-01-10T07:08:40;-2.30;99.90
1578;DHT22;57623;53.608;10.004;2024-01-10T07:11:09;-2.30;99.90
1578;DHT22;57623;53.608;10.004;2024-01-10T07:13:40;-2.30;99.90
1578;DHT22;57623;53.608;10.004;2024-01-10T07:16:08;-2.30;99.90
1578;DHT22;57623;53.608;10.004;2024-01-10T07:18:37;-2.30;99.90
1578;DHT22;57623;53.608;10.004;2024-01-10T07:21:05;-2.30;99.90
1578;DHT22;57623;53.608;10.004;2024-01-10T07:23:33;-2.30;99.90
1578;DHT22;57623;53.608;10.004;2024-01-10T07:26:01;-2.30;99.90
1578;DHT22;57623;53.608;10.004;2024-01-10T07:28:29;-2.40;99.90
1578;DHT22;57623;53.608;10.004;2024-01-10T07:31:00;-2.40;99.90
1578;DHT22;57623;53.608;10.004;2024-01-10T07:33:29;-2.40;99.90
1578;DHT22;57623;53.608;10.004;2024-01-10T07:35:58;-2.40;99.90
1578;DHT22;57623;53.608;10.004;2024-01-10T07:38:26;-2.40;99.90
1578;DHT22;57623;53.608;10.004;2024-01-10T07:40:54;-2.30;99.90
1578;DHT22;57623;53.608;10.004;2024-01-10T07:43:22;-2.30;99.90
1578;DHT22;57623;53.608;10.004;2024-01-10T07:45:50;-2.30;99.90
1578;DHT22;57623;53.608;10.004;2024-01-10T07:48:21;-2.30;99.90
1578;DHT22;57623;53.608;10.004;2024-01-10T07:50:49;-2.30;99.90
1578;DHT22;57623;53.608;10.004;2024-01-10T07:53:17;-2.30;99.90
1578;DHT22;57623;53.608;10.004;2024-01-10T07:55:45;-2.30;99.90
1578;DHT22;57623;53.608;10.004;2024-01-10T07:58:13;-2.30;99.90
1578;DHT22;57623;53.608;10.004;2024-01-10T08:00:42;-2.30;99.90
1578;DHT22;57623;53.608;10.004;2024-01-10T08:03:11;-2.30;99.90
1578;DHT22;57623;53.608;10.004;2024-01-10T08:05:41;-2.30;99.90
1578;DHT22;57623;53.608;10.004;2024-01-10T08:08:08;-2.20;99.90
1578;DHT22;57623;53.608;10.004;2024-01-10T08:10:36;-2.20;99.90
1578;DHT22;57623;53.608;10.004;2024-01-10T08:13:05;-2.20;99.90
1578;DHT22;57623;53.608;10.004;2024-01-10T08:15:33;-2.20;99.90
1578;DHT22;57623;53.608;10.004;2024-01-10T08:18:01;-2.20;99.90
1578;DHT22;57623;53.608;10.004;2024-01-10T08:20:30;-2.20;99.90
1578;DHT22;57623;53.608;10.004;2024-01-10T08:23:00;-2.10;99.90
1578;DHT22;57623;53.608;10.004;2024-01-10T08:25:28;-2.10;99.90
1578;DHT22;57623;53.608;10.004;2024-01-10T08:27:57;-2.10;99.90
1578;DHT22;57623;53.608;10.004;2024-01-10T08:30:25;-2.10;99.90
1578;DHT22;57623;53.608;10.004;2024-01-10T08:32:53;-2.10;99.90
1578;DHT22;57623;53.608;10.004;2024-01-10T08:35:21;-2.10;99.90
1578;DHT22;57623;53.608;10.004;2024-01-10T08:37:54;-2.00;99.90
1578;DHT22;57623;53.608;10.004;2024-01-10T08:40:23;-2.00;99.90
1578;DHT22;57623;53.608;10.004;2024-01-10T08:42:52;-2.00;99.90
1578;DHT22;57623;53.608;10.004;2024-01-10T08:45:20;-2.00;99.90
1578;DHT22;57623;53.608;10.004;2024-01-10T08:47:48;-2.10;99.90
1578;DHT22;57623;53.608;10.004;2024-01-10T08:50:16;-2.00;99.90
1578;DHT22;57623;53.608;10.004;2024-01-10T08:52:44;-2.00;99.90
1578;DHT22;57623;53.608;10.004;2024-01-10T08:55:13;-2.00;99.90
1578;DHT22;57623;53.608;10.004;2024-01-10T08:57:42;-2.00;99.90
1578;DHT22;57623;53.608;10.004;2024-01-10T09:00:11;-2.10;99.90
1578;DHT22;57623;53.608;10.004;2024-01-10T09:02:42;-2.00;99.90
1578;DHT22;57623;53.608;10.004;2024-01-10T09:05:10;-2.00;99.90
1578;DHT22;57623;53.608;10.004;2024-01-10T09:07:38;-2.00;99.90
1578;DHT22;57623;53.608;10.004;2024-01-10T09:10:07;-1.90;99.90
1578;DHT22;57623;53.608;10.004;2024-01-10T09:12:35;-1.90;99.90
1578;DHT22;57623;53.608;10.004;2024-01-10T09:15:05;-1.90;99.90
1578;DHT22;57623;53.608;10.004;2024-01-10T09:17:35;-1.80;99.90
1578;DHT22;57623;53.608;10.004;2024-01-10T09:20:02;-1.90;99.90
1578;DHT22;57623;53.608;10.004;2024-01-10T09:22:30;-1.80;99.90
1578;DHT22;57623;53.608;10.004;2024-01-10T09:24:58;-1.90;99.90
1578;DHT22;57623;53.608;10.004;2024-01-10T09:27:30;-1.90;99.90
1578;DHT22;57623;53.608;10.004;2024-01-10T09:29:58;-1.90;99.90
1578;DHT22;57623;53.608;10.004;2024-01-10T09:32:27;-1.90;99.90
1578;DHT22;57623;53.608;10.004;2024-01-10T09:34:56;-1.90;99.90
1578;DHT22;57623;53.608;10.004;2024-01-10T09:37:25;-1.90;99.90
1578;DHT22;57623;53.608;10.004;2024-01-10T09:39:53;-1.80;99.90
1578;DHT22;57623;53.608;10.004;2024-01-10T09:42:21;-1.80;99.90
1578;DHT22;57623;53.608;10.004;2024-01-10T09:44:52;-1.70;99.90
1578;DHT22;57623;53.608;10.004;2024-01-10T09:47:20;-1.80;99.90
1578;DHT22;57623;53.608;10.004;2024-01-10T09:49:50;-1.70;99.90
1578;DHT22;57623;53.608;10.004;2024-01-10T09:52:24;-1.70;99.90
1578;DHT22;57623;53.608;10.004;2024-01-10T09:54:54;-1.70;99.90
1578;DHT22;57623;53.608;10.004;2024-01-10T09:57:23;-1.60;99.90
1578;DHT22;57623;53.608;10.004;2024-01-10T09:59:52;-1.60;99.90
1578;DHT22;57623;53.608;10.004;2024-01-10T10:02:21;-1.70;99.90
1578;DHT22;57623;53.608;10.004;2024-01-10T10:04:57;-1.70;99.90
1578;DHT22;57623;53.608;10.004;2024-01-10T10:07:30;-1.70;99.90
1578;DHT22;57623;53.608;10.004;2024-01-10T10:09:58;-1.60;99.90
1578;DHT22;57623;53.608;10.004;2024-01-10T10:12:41;-1.60;99.90
1578;DHT22;57623;53.608;10.004;2024-01-10T10:15:15;-1.60;99.90
1578;DHT22;57623;53.608;10.004;2024-01-10T10:17:44;-1.60;99.90
1578;DHT22;57623;53.608;10.004;2024-01-10T10:20:20;-1.60;99.90
1578;DHT22;57623;53.608;10.004;2024-01-10T10:22:58;-1.70;99.90
1578;DHT22;57623;53.608;10.004;2024-01-10T10:25:29;-1.70;99.90
1578;DHT22;57623;53.608;10.004;2024-01-10T10:27:58;-1.70;99.90
1578;DHT22;57623;53.608;10.004;2024-01-10T10:30:26;-1.60;99.90
1578;DHT22;57623;53.608;10.004;2024-01-10T10:32:55;-1.50;99.90
1578;DHT22;57623;53.608;10.004;2024-01-10T10:35:24;-1.50;99.90
1578;DHT22;57623;53.608;10.004;2024-01-10T10:38:07;-1.40;99.90
1578;DHT22;57623;53.608;10.004;2024-01-10T10:40:37;-1.40;99.90
1578;DHT22;57623;53.608;10.004;2024-01-10T10:43:05;-1.30;99.90
1578;DHT22;57623;53.608;10.004;2024-01-10T10:45:38;-1.20;99.90
1578;DHT22;57623;53.608;10.004;2024-01-10T10:48:08;-1.20;99.90
1578;DHT22;57623;53.608;10.004;2024-01-10T10:50:38;-1.20;99.90
1578;DHT22;57623;53.608;10.004;2024-01-10T10:53:07;-1.10;99.90
1578;DHT22;57623;53.608;10.004;2024-01-10T10:55:36;-1.10;99.90
1578;DHT22;57623;53.608;10.004;2024-01-10T10:58:05;-1.10;99.90
1578;DHT22;57623;53.608;10.004;2024-01-10T11:00:38;-1.20;99.90
1578;DHT22;57623;53.608;10.004;2024-01-10T11:03:10;-1.20;99.90
1578;DHT22;57623;53.608;10.004;2024-01-10T11:05:40;-1.20;99.90
1578;DHT22;57623;53.608;10.004;2024-01-10T11:08:12;-1.20;99.90
1578;DHT22;57623;53.608;10.004;2024-01-10T11:10:43;-1.10;99.90
1578;DHT22;57623;53.608;10.004;2024-01-10T11:13:26;-1.00;99.90
1578;DHT22;57623;53.608;10.004;2024-01-10T11:16:29;-1.00;99.90
1578;DHT22;57623;53.608;10.004;2024-01-10T11:19:14;-1.00;99.90
1578;DHT22;57623;53.608;10.004;2024-01-10T11:22:03;-1.00;99.90
1578;DHT22;57623;53.608;10.004;2024-01-10T11:24:34;-1.00;99.90
1578;DHT22;57623;53.608;10.004;2024-01-10T11:27:11;-1.20;99.90
1578;DHT22;57623;53.608;10.004;2024-01-10T11:29:40;-1.20;99.90
1578;DHT22;57623;53.608;10.004;2024-01-10T11:32:14;-1.20;99.90
1578;DHT22;57623;53.608;10.004;2024-01-10T11:34:54;-1.10;99.90
1578;DHT22;57623;53.608;10.004;2024-01-10T11:37:28;-1.10;99.90
1578;DHT22;57623;53.608;10.004;2024-01-10T11:40:07;-1.00;99.90
1578;DHT22;57623;53.608;10.004;2024-01-10T11:42:41;-0.90;99.90
1578;DHT22;57623;53.608;10.004;2024-01-10T11:45:09;-1.00;99.90
1578;DHT22;57623;53.608;10.004;2024-01-10T11:47:38;-1.00;99.90
1578;DHT22;57623;53.608;10.004;2024-01-10T11:50:08;-1.10;99.90
1578;DHT22;57623;53.608;10.004;2024-01-10T11:52:38;-1.20;99.90
1578;DHT22;57623;53.608;10.004;2024-01-10T11:55:06;-1.30;99.90
1578;DHT22;57623;53.608;10.004;2024-01-10T11:57:35;-1.30;99.90
1578;DHT22;57623;53.608;10.004;2024-01-10T12:00:06;-1.30;99.90
1578;DHT22;57623;53.608;10.004;2024-01-10T12:02:35;-1.30;99.90
1578;DHT22;57623;53.608;10.004;2024-01-10T12:05:04;-1.30;99.90
1578;DHT22;57623;53.608;10.004;2024-01-10T12:07:33;-1.30;99.90
1578;DHT22;57623;53.608;10.004;2024-01-10T12:10:04;-1.20;99.90
1578;DHT22;57623;53.608;10.004;2024-01-10T12:12:32;-1.20;99.90
1578;DHT22;57623;53.608;10.004;2024-01-10T12:15:00;-1.10;99.90
1578;DHT22;57623;53.608;10.004;2024-01-10T12:17:28;-1.10;99.90
1578;DHT22;57623;53.608;10.004;2024-01-10T12:19:56;-1.10;99.90
1578;DHT22;57623;53.608;10.004;2024-01-10T12:22:24;-1.10;99.90
1578;DHT22;57623;53.608;10.004;2024-01-10T12:24:52;-1.10;99.90
1578;DHT22;57623;53.608;10.004;2024-01-10T12:27:21;-1.10;99.90
1578;DHT22;57623;53.608;10.004;2024-01-10T12:29:51;-1.10;99.90
1578;DHT22;57623;53.608;10.004;2024-01-10T12:32:21;-1.10;99.90
1578;DHT22;57623;53.608;10.004;2024-01-10T12:34:57;-1.10;99.90
1578;DHT22;57623;53.608;10.004;2024-01-10T12:37:26;-1.10;99.90
1578;DHT22;57623;53.608;10.004;2024-01-10T12:39:54;-1.10;99.90
1578;DHT22;57623;53.608;10.004;2024-01-10T12:42:24;-1.10;99.90
1578;DHT22;57623;53.608;10.004;2024-01-10T12:44:53;-1.00;99.90
1578;DHT22;57623;53.608;10.004;2024-01-10T12:47:22;-0.90;99.90
1578;DHT22;57623;53.608;10.004;2024-01-10T12:49:51;-0.80;99.90
1578;DHT22;57623;53.608;10.004;2024-01-10T12:52:20;-0.80;99.90
1578;DHT22;57623;53.608;10.004;2024-01-10T12:54:50;-0.80;99.90
1578;DHT22;57623;53.608;10.004;2024-01-10T12:57:19;-0.80;99.90
1578;DHT22;57623;53.608;10.004;2024-01-10T12:59:48;-0.80;99.90
1578;DHT22;57623;53.608;10.004;2024-01-10T13:02:16;-0.90;99.90
1578;DHT22;57623;53.608;10.004;2024-01-10T13:04:45;-0.90;99.90
1578;DHT22;57623;53.608;10.004;2024-01-10T13:07:13;-1.00;99.90
1578;DHT22;57623;53.608;10.004;2024-01-10T13:09:42;-1.00;99.90
1578;DHT22;57623;53.608;10.004;2024-01-10T13:12:10;-1.00;99.90
1578;DHT22;57623;53.608;10.004;2024-01-10T13:14:38;-1.00;99.90
1578;DHT22;57623;53.608;10.004;2024-01-10T13:17:07;-1.10;99.90
1578;DHT22;57623;53.608;10.004;2024-01-10T13:19:38;-1.10;99.90
1578;DHT22;57623;53.608;10.004;2024-01-10T13:22:07;-1.10;99.90
1578;DHT22;57623;53.608;10.004;2024-01-10T13:24:36;-1.10;99.90
1578;DHT22;57623;53.608;10.004;2024-01-10T13:27:04;-1.10;99.90
1578;DHT22;57623;53.608;10.004;2024-01-10T13:29:32;-1.10;99.90
1578;DHT22;57623;53.608;10.004;2024-01-10T13:32:02;-1.00;99.90
1578;DHT22;57623;53.608;10.004;2024-01-10T13:34:31;-0.90;99.90
1578;DHT22;57623;53.608;10.004;2024-01-10T13:36:59;-0.90;99.90
1578;DHT22;57623;53.608;10.004;2024-01-10T13:39:28;-1.00;99.90
1578;DHT22;57623;53.608;10.004;2024-01-10T13:41:56;-1.00;99.90
1578;DHT22;57623;53.608;10.004;2024-01-10T13:44:25;-1.00;99.90
1578;DHT22;57623;53.608;10.004;2024-01-10T13:46:53;-1.00;99.90
1578;DHT22;57623;53.608;10.004;2024-01-10T13:49:21;-0.90;99.90
1578;DHT22;57623;53.608;10.004;2024-01-10T13:51:50;-0.90;99.90
1578;DHT22;57623;53.608;10.004;2024-01-10T13:54:18;-0.80;99.90
1578;DHT22;57623;53.608;10.004;2024-01-10T13:56:48;-0.70;99.90
1578;DHT22;57623;53.608;10.004;2024-01-10T13:59:16;-0.70;99.90
1578;DHT22;57623;53.608;10.004;2024-01-10T14:01:44;-0.70;99.90
1578;DHT22;57623;53.608;10.004;2024-01-10T14:04:12;-0.70;99.90
1578;DHT22;57623;53.608;10.004;2024-01-10T14:06:40;-0.70;99.90
1578;DHT22;57623;53.608;10.004;2024-01-10T14:09:10;-0.70;99.90
1578;DHT22;57623;53.608;10.004;2024-01-10T14:11:38;-0.80;99.90
1578;DHT22;57623;53.608;10.004;2024-01-10T14:14:06;-0.80;99.90
1578;DHT22;57623;53.608;10.004;2024-01-10T14:16:34;-0.80;99.90
1578;DHT22;57623;53.608;10.004;2024-01-10T14:19:02;-0.80;99.90
1578;DHT22;57623;53.608;10.004;2024-01-10T14:21:31;-0.80;99.90
1578;DHT22;57623;53.608;10.004;2024-01-10T14:23:59;-0.90;99.90
1578;DHT22;57623;53.608;10.004;2024-01-10T14:26:28;-0.80;99.90
1578;DHT22;57623;53.608;10.004;2024-01-10T14:28:56;-0.90;99.90
1578;DHT22;57623;53.608;10.004;2024-01-10T14:31:26;-0.90;99.90
1578;DHT22;57623;53.608;10.004;2024-01-10T14:34:14;-0.90;99.90
1578;DHT22;57623;53.608;10.004;2024-01-10T14:36:42;-0.90;99.90
1578;DHT22;57623;53.608;10.004;2024-01-10T14:39:10;-1.00;99.90
1578;DHT22;57623;53.608;10.004;2024-01-10T14:41:41;-1.00;99.90
1578;DHT22;57623;53.608;10.004;2024-01-10T14:44:10;-1.10;99.90
1578;DHT22;57623;53.608;10.004;2024-01-10T14:46:38;-1.10;99.90
1578;DHT22;57623;53.608;10.004;2024-01-10T14:49:11;-1.10;99.90
1578;DHT22;57623;53.608;10.004;2024-01-10T14:51:39;-1.10;99.90
1578;DHT22;57623;53.608;10.004;2024-01-10T14:54:07;-1.20;99.90
1578;DHT22;57623;53.608;10.004;2024-01-10T14:56:35;-1.10;99.90
1578;DHT22;57623;53.608;10.004;2024-01-10T14:59:06;-1.20;99.90
1578;DHT22;57623;53.608;10.004;2024-01-10T15:01:34;-1.20;99.90
1578;DHT22;57623;53.608;10.004;2024-01-10T15:04:03;-1.30;99.90
1578;DHT22;57623;53.608;10.004;2024-01-10T15:06:31;-1.30;99.90
1578;DHT22;57623;53.608;10.004;2024-01-10T15:08:59;-1.30;99.90
1578;DHT22;57623;53.608;10.004;2024-01-10T15:11:30;-1.30;99.90
1578;DHT22;57623;53.608;10.004;2024-01-10T15:13:58;-1.40;99.90
1578;DHT22;57623;53.608;10.004;2024-01-10T15:16:29;-1.40;99.90
1578;DHT22;57623;53.608;10.004;2024-01-10T15:18:57;-1.40;99.90
1578;DHT22;57623;53.608;10.004;2024-01-10T15:21:29;-1.40;99.90
1578;DHT22;57623;53.608;10.004;2024-01-10T15:23:57;-1.40;99.90
1578;DHT22;57623;53.608;10.004;2024-01-10T15:26:25;-1.40;99.90
1578;DHT22;57623;53.608;10.004;2024-01-10T15:28:54;-1.40;99.90
1578;DHT22;57623;53.608;10.004;2024-01-10T15:31:22;-1.40;99.90
1578;DHT22;57623;53.608;10.004;2024-01-10T15:33:53;-1.40;99.90
1578;DHT22;57623;53.608;10.004;2024-01-10T15:36:21;-1.40;99.90
1578;DHT22;57623;53.608;10.004;2024-01-10T15:38:50;-1.40;99.90
1578;DHT22;57623;53.608;10.004;2024-01-10T15:41:18;-1.50;99.90
1578;DHT22;57623;53.608;10.004;2024-01-10T15:43:46;-1.50;99.90